Time,TemperatureF,DewpointF,PressureIn,WindDirection,WindDirectionDegrees,WindSpeedMPH,WindSpeedGustMPH,Humidity,HourlyPrecipIn,Conditions,Clouds,dailyrainin,SolarRadiationWatts/m^2,SoftwareType,DateUTC
2013-01-19 00:02:00,18.0,15.0,-100.00,WSW,241,1.0,3.0,86,0.00,,,0.00,0.000000,,2013-01-19 06:02:00,
2013-01-19 00:33:00,18.0,15.0,-100.00,WSW,241,1.0,3.0,86,0.00,,,0.00,0.000000,,2013-01-19 06:33:00,
2013-01-19 00:43:00,18.0,15.0,-100.00,WSW,241,1.0,3.0,86,0.00,,,0.00,0.000000,,2013-01-19 06:43:00,
2013-01-19 00:53:00,18.0,15.0,-100.00,WSW,241,1.0,3.0,86,0.00,,,0.00,0.000000,,2013-01-19 06:53:00,
2013-01-19 01:02:00,18.0,15.0,-100.00,SW,229,1.0,4.0,86,0.00,,,0.00,0.000000,,2013-01-19 07:02:00,
2013-01-19 01:33:00,18.0,15.0,-100.00,SW,229,1.0,4.0,86,0.00,,,0.00,0.000000,,2013-01-19 07:33:00,
2013-01-19 01:43:00,18.0,15.0,-100.00,SW,229,1.0,4.0,86,0.00,,,0.00,0.000000,,2013-01-19 07:43:00,
2013-01-19 01:53:00,18.0,15.0,-100.00,SW,229,1.0,4.0,86,0.00,,,0.00,0.000000,,2013-01-19 07:53:00,
2013-01-19 02:02:00,19.0,16.0,-100.00,SW,221,1.0,3.0,86,0.00,,,0.00,0.000000,,2013-01-19 08:02:00,
2013-01-19 02:33:00,19.0,16.0,-100.00,SW,221,1.0,3.0,86,0.00,,,0.00,0.000000,,2013-01-19 08:33:00,
2013-01-19 02:43:00,19.0,16.0,-100.00,SW,221,1.0,3.0,86,0.00,,,0.00,0.000000,,2013-01-19 08:43:00,
2013-01-19 02:53:00,19.0,16.0,-100.00,SW,221,1.0,3.0,86,0.00,,,0.00,0.000000,,2013-01-19 08:53:00,
2013-01-19 03:02:00,19.0,16.0,-100.00,SSE,147,1.0,4.0,87,0.00,,,0.00,0.000000,,2013-01-19 09:02:00,
2013-01-19 03:33:00,19.0,16.0,-100.00,SSE,147,1.0,4.0,87,0.00,,,0.00,0.000000,,2013-01-19 09:33:00,
2013-01-19 03:43:00,19.0,16.0,-100.00,SSE,147,1.0,4.0,87,0.00,,,0.00,0.000000,,2013-01-19 09:43:00,
2013-01-19 03:53:00,19.0,16.0,-100.00,SSE,147,1.0,4.0,87,0.00,,,0.00,0.000000,,2013-01-19 09:53:00,
2013-01-19 04:02:00,19.0,16.0,-100.00,NE,55,2.0,4.0,88,0.00,,,0.00,0.000000,,2013-01-19 10:02:00,
2013-01-19 04:33:00,19.0,16.0,-100.00,NE,55,2.0,4.0,88,0.00,,,0.00,0.000000,,2013-01-19 10:33:00,
2013-01-19 04:43:00,19.0,16.0,-100.00,NE,55,2.0,4.0,88,0.00,,,0.00,0.000000,,2013-01-19 10:43:00,
2013-01-19 04:53:00,19.0,16.0,-100.00,NE,55,2.0,4.0,88,0.00,,,0.00,0.000000,,2013-01-19 10:53:00,
2013-01-19 06:02:00,16.0,13.0,-100.00,ESE,112,2.0,3.0,88,0.00,,,0.00,0.000000,,2013-01-19 12:02:00,
2013-01-19 06:48:00,16.0,13.0,-100.00,ESE,112,2.0,3.0,88,0.00,,,0.00,0.000000,,2013-01-19 12:48:00,
2013-01-19 06:53:00,16.0,13.0,-100.00,ESE,112,2.0,3.0,88,0.00,,,0.00,0.000000,,2013-01-19 12:53:00,
2013-01-19 07:02:00,17.0,15.0,-100.00,West,260,1.0,4.0,90,0.00,,,0.00,0.000000,,2013-01-19 13:02:00,
2013-01-19 07:23:00,17.0,15.0,-100.00,West,260,1.0,4.0,90,0.00,,,0.00,0.000000,,2013-01-19 13:23:00,
2013-01-19 07:34:00,17.0,15.0,-100.00,West,260,1.0,4.0,90,0.00,,,0.00,0.000000,,2013-01-19 13:34:00,
2013-01-19 07:43:00,17.0,15.0,-100.00,West,260,1.0,4.0,90,0.00,,,0.00,0.000000,,2013-01-19 13:43:00,
2013-01-19 07:53:00,17.0,15.0,-100.00,West,260,1.0,4.0,90,0.00,,,0.00,0.000000,,2013-01-19 13:53:00,
2013-01-19 08:02:00,18.0,16.0,-100.00,SE,141,1.0,3.0,90,0.00,,,0.00,3.000000,,2013-01-19 14:02:00,
2013-01-19 08:34:00,18.0,16.0,-100.00,SE,141,1.0,3.0,90,0.00,,,0.00,3.000000,,2013-01-19 14:34:00,
2013-01-19 08:43:00,18.0,16.0,-100.00,SE,141,1.0,3.0,90,0.00,,,0.00,3.000000,,2013-01-19 14:43:00,
2013-01-19 08:53:00,18.0,16.0,-100.00,SE,141,1.0,3.0,90,0.00,,,0.00,3.000000,,2013-01-19 14:53:00,
2013-01-19 09:02:00,23.0,21.0,-100.00,SSE,159,2.0,5.0,90,0.00,,,0.00,39.000000,,2013-01-19 15:02:00,
2013-01-19 09:23:00,23.0,21.0,-100.00,SSE,159,2.0,5.0,90,0.00,,,0.00,39.000000,,2013-01-19 15:23:00,
2013-01-19 09:34:00,23.0,21.0,-100.00,SSE,159,2.0,5.0,90,0.00,,,0.00,39.000000,,2013-01-19 15:34:00,
2013-01-19 09:43:00,23.0,21.0,-100.00,SSE,159,2.0,5.0,90,0.00,,,0.00,39.000000,,2013-01-19 15:43:00,
2013-01-19 09:53:00,23.0,21.0,-100.00,SSE,159,2.0,5.0,90,0.00,,,0.00,39.000000,,2013-01-19 15:53:00,
2013-01-19 10:02:00,26.0,23.0,-100.00,South,188,4.0,8.0,88,0.00,,,0.00,102.000000,,2013-01-19 16:02:00,
2013-01-19 10:33:00,26.0,23.0,-100.00,South,188,4.0,8.0,88,0.00,,,0.00,102.000000,,2013-01-19 16:33:00,
2013-01-19 10:43:00,26.0,23.0,-100.00,South,188,4.0,8.0,88,0.00,,,0.00,102.000000,,2013-01-19 16:43:00,
2013-01-19 10:54:00,26.0,23.0,-100.00,South,188,4.0,8.0,88,0.00,,,0.00,102.000000,,2013-01-19 16:54:00,
2013-01-19 11:02:00,30.0,26.0,-100.00,WSW,242,5.0,14.0,85,0.00,,,0.00,125.000000,,2013-01-19 17:02:00,
2013-01-19 11:38:00,30.0,26.0,-100.00,WSW,242,5.0,14.0,85,0.00,,,0.00,125.000000,,2013-01-19 17:38:00,
2013-01-19 11:50:00,30.0,26.0,-100.00,WSW,242,5.0,14.0,85,0.00,,,0.00,125.000000,,2013-01-19 17:50:00,
2013-01-19 12:02:00,31.0,27.0,-100.00,WSW,242,5.0,14.0,84,0.00,,,0.00,115.000000,,2013-01-19 18:02:00,
2013-01-19 12:38:00,31.0,27.0,-100.00,WSW,242,5.0,14.0,84,0.00,,,0.00,115.000000,,2013-01-19 18:38:00,
2013-01-19 12:47:00,31.0,27.0,-100.00,WSW,242,5.0,14.0,84,0.00,,,0.00,115.000000,,2013-01-19 18:47:00,
2013-01-19 13:00:00,31.0,27.0,-100.00,WSW,242,5.0,14.0,84,0.00,,,0.00,115.000000,,2013-01-19 19:00:00,
2013-01-19 13:02:00,30.0,24.0,-100.00,WNW,284,7.0,19.0,79,0.00,,,0.00,140.000000,,2013-01-19 19:02:00,
2013-01-19 13:40:00,30.0,24.0,-100.00,WNW,284,7.0,19.0,79,0.00,,,0.00,140.000000,,2013-01-19 19:40:00,
2013-01-19 13:49:00,30.0,24.0,-100.00,WNW,284,7.0,19.0,79,0.00,,,0.00,140.000000,,2013-01-19 19:49:00,
2013-01-19 14:27:00,30.0,24.0,-100.00,West,280,7.0,16.0,77,0.01,,,0.01,97.000000,,2013-01-19 20:27:00,
2013-01-19 14:39:00,30.0,24.0,-100.00,West,280,7.0,16.0,77,0.01,,,0.01,97.000000,,2013-01-19 20:39:00,
2013-01-19 14:50:00,30.0,24.0,-100.00,West,280,7.0,16.0,77,0.01,,,0.01,97.000000,,2013-01-19 20:50:00,
2013-01-19 14:58:00,30.0,24.0,-100.00,West,280,7.0,16.0,77,0.01,,,0.01,97.000000,,2013-01-19 20:58:00,
2013-01-19 15:02:00,31.0,21.0,-100.00,WNW,283,6.0,17.0,65,0.00,,,0.01,124.000000,,2013-01-19 21:02:00,
2013-01-19 15:47:00,31.0,21.0,-100.00,WNW,283,6.0,17.0,65,0.00,,,0.01,124.000000,,2013-01-19 21:47:00,
2013-01-19 16:00:00,31.0,21.0,-100.00,WNW,283,6.0,17.0,65,0.00,,,0.01,124.000000,,2013-01-19 22:00:00,
2013-01-19 16:02:00,29.0,17.0,-100.00,NW,307,10.0,29.0,61,0.01,,,0.02,55.000000,,2013-01-19 22:02:00,
2013-01-19 16:36:00,29.0,17.0,-100.00,NW,307,10.0,29.0,61,0.01,,,0.02,55.000000,,2013-01-19 22:36:00,
2013-01-19 16:58:00,29.0,17.0,-100.00,NW,307,10.0,29.0,61,0.01,,,0.02,55.000000,,2013-01-19 22:58:00,
2013-01-19 17:02:00,16.0,6.0,-100.00,NW,307,11.0,33.0,63,0.00,,,0.02,8.000000,,2013-01-19 23:02:00,
2013-01-19 17:28:00,16.0,6.0,-100.00,NW,307,11.0,33.0,63,0.00,,,0.02,8.000000,,2013-01-19 23:28:00,
2013-01-19 17:35:00,16.0,6.0,-100.00,NW,307,11.0,33.0,63,0.00,,,0.02,8.000000,,2013-01-19 23:35:00,
2013-01-19 17:50:00,16.0,6.0,-100.00,NW,307,11.0,33.0,63,0.00,,,0.02,8.000000,,2013-01-19 23:50:00,
2013-01-19 18:02:00,12.0,3.0,-100.00,NW,311,12.0,27.0,66,0.00,,,0.02,0.000000,,2013-01-20 00:02:00,
2013-01-19 18:26:00,12.0,3.0,-100.00,NW,311,12.0,27.0,66,0.00,,,0.02,0.000000,,2013-01-20 00:26:00,
2013-01-19 18:38:00,12.0,3.0,-100.00,NW,311,12.0,27.0,66,0.00,,,0.02,0.000000,,2013-01-20 00:38:00,
2013-01-19 18:48:00,12.0,3.0,-100.00,NW,311,12.0,27.0,66,0.00,,,0.02,0.000000,,2013-01-20 00:48:00,
2013-01-19 18:56:00,12.0,3.0,-100.00,NW,311,12.0,27.0,66,0.00,,,0.02,0.000000,,2013-01-20 00:56:00,
2013-01-19 19:02:00,8.0,1.0,-100.00,WNW,302,13.0,29.0,71,0.00,,,0.02,0.000000,,2013-01-20 01:02:00,
2013-01-19 19:39:00,8.0,1.0,-100.00,WNW,302,13.0,29.0,71,0.00,,,0.02,0.000000,,2013-01-20 01:39:00,
2013-01-19 19:51:00,8.0,1.0,-100.00,WNW,302,13.0,29.0,71,0.00,,,0.02,0.000000,,2013-01-20 01:51:00,
2013-01-19 20:02:00,5.0,-4.0,-100.00,NW,311,11.0,25.0,67,0.00,,,0.02,0.000000,,2013-01-20 02:02:00,
2013-01-19 20:45:00,5.0,-4.0,-100.00,NW,311,11.0,25.0,67,0.00,,,0.02,0.000000,,2013-01-20 02:45:00,
2013-01-19 20:59:00,5.0,-4.0,-100.00,NW,311,11.0,25.0,67,0.00,,,0.02,0.000000,,2013-01-20 02:59:00,
2013-01-19 21:02:00,3.0,-5.0,-100.00,NW,313,13.0,26.0,67,0.00,,,0.02,0.000000,,2013-01-20 03:02:00,
2013-01-19 21:39:00,3.0,-5.0,-100.00,NW,313,13.0,26.0,67,0.00,,,0.02,0.000000,,2013-01-20 03:39:00,
2013-01-19 21:47:00,3.0,-5.0,-100.00,NW,313,13.0,26.0,67,0.00,,,0.02,0.000000,,2013-01-20 03:47:00,
2013-01-19 22:02:00,1.0,-7.0,-100.00,NW,311,9.0,21.0,69,0.00,,,0.02,0.000000,,2013-01-20 04:02:00,
2013-01-19 22:28:00,1.0,-7.0,-100.00,NW,311,9.0,21.0,69,0.00,,,0.02,0.000000,,2013-01-20 04:28:00,
2013-01-19 22:38:00,1.0,-7.0,-100.00,NW,311,9.0,21.0,69,0.00,,,0.02,0.000000,,2013-01-20 04:38:00,
2013-01-19 22:45:00,1.0,-7.0,-100.00,NW,311,9.0,21.0,69,0.00,,,0.02,0.000000,,2013-01-20 04:45:00,
2013-01-19 23:02:00,1.0,-7.0,-100.00,NW,319,10.0,22.0,69,0.00,,,0.02,0.000000,,2013-01-20 05:02:00,
2013-01-19 23:23:00,1.0,-7.0,-100.00,NW,319,10.0,22.0,69,0.00,,,0.02,0.000000,,2013-01-20 05:23:00,
2013-01-19 23:33:00,1.0,-7.0,-100.00,NW,319,10.0,22.0,69,0.00,,,0.02,0.000000,,2013-01-20 05:33:00,
2013-01-19 23:43:00,1.0,-7.0,-100.00,NW,319,10.0,22.0,69,0.00,,,0.02,0.000000,,2013-01-20 05:43:00,
2013-01-19 23:53:00,1.0,-7.0,-100.00,NW,319,10.0,22.0,69,0.00,,,0.02,0.000000,,2013-01-20 05:53:00,